Time;durP1;ratioP1;P1;durP2;ratioP2;P2;SDS_P1;SDS_P2;PMS_P1;PMS_P2;Temp;Humidity;BMP_temperature;BMP_pressure;BME280_temperature;BME280_humidity;BME280_pressure;Samples;Min_cycle;Max_cycle;Signal;HPM_P1;HPM_P2
2022/03/10 00:02:06;;;;;;;87.40;38.20;;;5.60;22.10;;;;;;5019040;28;20216;-73
2022/03/10 00:04:36;;;;;;;96.47;37.78;;;5.60;22.40;;;;;;5022403;28;20197;-74
2022/03/10 00:07:03;;;;;;;80.95;37.58;;;5.70;21.30;;;;;;5018167;28;20170;-74
2022/03/10 00:09:32;;;;;;;99.72;38.35;;;5.50;21.80;;;;;;5022060;28;20197;-73
2022/03/10 00:12:01;;;;;;;94.93;37.00;;;3.50;21.50;;;;;;5021315;28;20181;-73
2022/03/10 00:14:27;;;;;;;91.40;36.97;;;5.00;23.20;;;;;;5021060;28;20664;-73
2022/03/10 00:16:53;;;;;;;100.80;38.13;;;5.00;22.90;;;;;;5018244;28;20181;-73
2022/03/10 00:19:19;;;;;;;93.65;38.45;;;4.70;24.00;;;;;;5021359;28;20197;-74
2022/03/10 00:21:47;;;;;;;87.43;36.60;;;4.70;23.30;;;;;;5020109;28;20220;-74
2022/03/10 00:24:14;;;;;;;86.85;36.88;;;4.80;23.30;;;;;;5022784;28;20181;-74
2022/03/10 00:26:40;;;;;;;90.30;36.47;;;4.80;23.80;;;;;;5021263;28;20185;-74
2022/03/10 00:29:06;;;;;;;91.95;35.95;;;4.90;23.30;;;;;;5022513;28;20198;-74
2022/03/10 00:31:32;;;;;;;86.67;38.10;;;5.10;23.10;;;;;;5023631;28;20183;-72
2022/03/10 00:33:58;;;;;;;80.13;35.23;;;5.40;22.80;;;;;;5020867;28;20173;-71
2022/03/10 00:36:24;;;;;;;80.27;37.40;;;5.10;23.40;;;;;;5017591;28;20432;-72
2022/03/10 00:38:50;;;;;;;86.10;35.90;;;5.10;23.30;;;;;;5022133;28;20197;-71
2022/03/10 00:41:16;;;;;;;84.28;35.20;;;5.00;23.40;;;;;;5018545;28;20424;-74
2022/03/10 00:43:41;;;;;;;94.87;35.83;;;5.10;22.80;;;;;;5022929;28;20203;-74
2022/03/10 00:46:07;;;;;;;91.50;36.70;;;5.20;23.40;;;;;;5024233;28;20568;-73
2022/03/10 00:48:33;;;;;;;84.87;36.90;;;5.00;23.10;;;;;;5023288;28;20263;-73
2022/03/10 00:50:59;;;;;;;83.22;35.78;;;4.80;23.60;;;;;;5022854;28;20455;-73
2022/03/10 00:53:25;;;;;;;92.80;37.00;;;4.80;23.90;;;;;;5022676;28;20213;-74
2022/03/10 00:55:51;;;;;;;88.67;36.33;;;5.00;23.30;;;;;;5022812;28;20428;-74
2022/03/10 00:58:16;;;;;;;82.50;36.97;;;4.90;23.30;;;;;;5028350;28;20451;-73
2022/03/10 01:00:42;;;;;;;91.37;35.60;;;5.00;23.10;;;;;;5022006;28;20439;-74
2022/03/10 01:03:08;;;;;;;80.53;35.63;;;5.10;22.90;;;;;;5033189;28;20238;-74
2022/03/10 01:05:34;;;;;;;81.83;36.40;;;4.90;23.80;;;;;;5024798;28;20459;-74
2022/03/10 01:08:00;;;;;;;88.82;35.58;;;4.90;23.30;;;;;;5026398;28;20169;-74
2022/03/10 01:10:26;;;;;;;85.97;36.33;;;5.00;23.70;;;;;;5029542;28;20188;-74
2022/03/10 01:12:52;;;;;;;87.07;37.30;;;4.70;23.70;;;;;;5027787;28;20415;-74
2022/03/10 01:15:20;;;;;;;83.23;35.87;;;4.70;24.40;;;;;;5028937;28;20939;-74
2022/03/10 01:17:46;;;;;;;81.28;35.80;;;5.00;23.40;;;;;;5030979;28;20485;-74
2022/03/10 01:20:12;;;;;;;79.93;36.23;;;4.90;23.20;;;;;;5022829;28;20208;-74
2022/03/10 01:22:39;;;;;;;92.05;36.97;;;4.80;23.30;;;;;;5023029;28;20436;-74
2022/03/10 01:25:06;;;;;;;85.25;34.97;;;4.80;23.90;;;;;;5032037;28;20209;-74
2022/03/10 01:27:32;;;;;;;80.18;36.47;;;4.70;24.80;;;;;;5031982;28;20226;-73
2022/03/10 01:29:57;;;;;;;85.95;35.63;;;4.80;23.70;;;;;;5022139;28;20197;-73
2022/03/10 01:32:23;;;;;;;76.30;35.10;;;4.70;23.80;;;;;;5032444;28;20545;-74
2022/03/10 01:34:49;;;;;;;76.78;35.22;;;4.60;24.50;;;;;;5029927;28;20207;-73
2022/03/10 01:37:15;;;;;;;87.90;35.40;;;4.60;23.80;;;;;;5027278;28;20189;-74
2022/03/10 01:39:40;;;;;;;90.67;36.57;;;4.70;23.60;;;;;;5020556;28;20202;-74
2022/03/10 01:42:07;;;;;;;75.10;34.23;;;4.90;23.30;;;;;;5020800;28;20185;-73
2022/03/10 01:44:34;;;;;;;75.90;34.88;;;4.50;23.90;;;;;;5030991;28;20654;-73
2022/03/10 01:47:01;;;;;;;80.97;34.03;;;4.40;24.80;;;;;;5029240;28;20268;-74
2022/03/10 01:49:27;;;;;;;76.55;35.50;;;4.60;25.00;;;;;;5020588;28;20200;-74
2022/03/10 01:51:53;;;;;;;89.47;34.83;;;4.50;23.80;;;;;;5028979;28;20180;-74
2022/03/10 01:54:19;;;;;;;83.82;34.97;;;4.70;23.50;;;;;;5022174;28;20510;-74
2022/03/10 01:56:45;;;;;;;77.13;35.50;;;4.50;24.10;;;;;;5024504;28;20184;-73
2022/03/10 01:59:13;;;;;;;77.73;35.90;;;4.50;24.80;;;;;;5030791;28;20200;-73
2022/03/10 02:01:38;;;;;;;75.63;35.20;;;4.40;25.00;;;;;;5031713;28;20423;-74
2022/03/10 02:04:04;;;;;;;81.87;35.27;;;4.50;24.90;;;;;;5027726;28;20184;-73
2022/03/10 02:06:31;;;;;;;79.70;35.60;;;4.40;24.80;;;;;;5024052;28;20311;-73
2022/03/10 02:11:41;;;;;;;81.72;34.00;;;4.00;25.30;;;;;;5018415;28;20184;-71
2022/03/10 02:19:36;;;;;;;78.57;34.15;;;4.00;25.10;;;;;;5020161;28;20320;-73
2022/03/10 02:22:09;;;;;;;71.63;35.07;;;4.30;24.20;;;;;;5023321;28;20256;-73
2022/03/10 02:24:40;;;;;;;78.30;34.55;;;4.50;23.90;;;;;;5023773;28;20736;-74
2022/03/10 02:27:20;;;;;;;79.82;35.17;;;4.00;25.40;;;;;;5029354;28;20173;-74
2022/03/10 02:29:48;;;;;;;77.18;33.88;;;3.90;25.60;;;;;;5020277;28;20278;-74
2022/03/10 02:32:16;;;;;;;77.45;35.20;;;4.10;25.10;;;;;;5022746;28;20188;-73
2022/03/10 02:34:42;;;;;;;74.10;32.53;;;4.20;24.90;;;;;;5023214;28;20174;-73
2022/03/10 02:37:09;;;;;;;77.13;33.40;;;4.10;25.70;;;;;;5028654;28;20189;-73
2022/03/10 02:39:35;;;;;;;82.28;32.53;;;4.20;25.40;;;;;;5023186;28;20228;-73
2022/03/10 02:42:02;;;;;;;69.88;31.25;;;3.90;25.90;;;;;;5026420;28;20177;-73
2022/03/10 02:44:28;;;;;;;81.22;33.38;;;4.10;24.90;;;;;;5026139;28;20216;-73
2022/03/10 02:46:54;;;;;;;74.88;33.80;;;4.10;24.90;;;;;;5018975;28;20547;-74
2022/03/10 02:49:20;;;;;;;72.40;32.77;;;4.20;24.60;;;;;;5030445;28;20192;-72
2022/03/10 02:51:45;;;;;;;83.60;33.83;;;4.10;25.00;;;;;;5029431;28;20427;-72
2022/03/10 02:54:11;;;;;;;82.43;32.87;;;4.10;25.00;;;;;;5030663;28;20239;-74
2022/03/10 02:56:37;;;;;;;81.40;33.97;;;3.70;26.00;;;;;;5023067;28;20251;-74
2022/03/10 02:59:03;;;;;;;67.20;32.42;;;3.60;26.10;;;;;;5020094;28;20200;-74
2022/03/10 03:01:29;;;;;;;76.07;32.75;;;3.70;25.50;;;;;;5030799;28;20191;-74
2022/03/10 03:03:55;;;;;;;76.43;31.27;;;3.70;26.70;;;;;;5020417;28;20181;-74
2022/03/10 03:06:21;;;;;;;71.20;31.67;;;3.80;25.30;;;;;;5028159;28;20204;-72
2022/03/10 03:08:47;;;;;;;67.30;31.77;;;4.00;25.10;;;;;;5030034;28;20555;-72
2022/03/10 03:11:13;;;;;;;75.25;31.25;;;3.90;25.00;;;;;;5027831;28;20459;-72
2022/03/10 03:13:38;;;;;;;82.07;31.50;;;4.10;24.60;;;;;;5022883;28;20694;-72
2022/03/10 03:16:04;;;;;;;71.87;32.77;;;4.20;24.20;;;;;;5028123;28;20180;-72
2022/03/10 03:18:30;;;;;;;73.70;30.67;;;4.20;25.40;;;;;;5029116;28;20609;-72
2022/03/10 03:20:55;;;;;;;66.20;30.07;;;4.10;24.50;;;;;;5030295;28;20219;-72
2022/03/10 03:23:23;;;;;;;67.13;30.07;;;4.30;24.00;;;;;;5019531;28;20279;-72
2022/03/10 03:25:50;;;;;;;77.00;32.63;;;4.10;24.70;;;;;;5029803;28;20561;-72
2022/03/10 03:28:16;;;;;;;71.25;31.10;;;4.00;25.80;;;;;;5021848;28;20205;-72
2022/03/10 03:30:42;;;;;;;74.93;31.67;;;3.90;25.10;;;;;;5031057;28;20185;-72
2022/03/10 03:33:08;;;;;;;69.77;32.57;;;3.90;25.30;;;;;;5029635;28;20276;-72
2022/03/10 03:35:34;;;;;;;70.93;31.30;;;4.00;24.90;;;;;;5019431;28;20852;-72
2022/03/10 03:37:59;;;;;;;64.80;29.87;;;3.90;26.30;;;;;;5019511;28;20474;-72
2022/03/10 03:40:25;;;;;;;83.23;32.23;;;3.80;25.30;;;;;;5029081;28;20253;-71
2022/03/10 03:42:51;;;;;;;66.60;30.47;;;3.90;24.70;;;;;;5022292;28;20184;-71
2022/03/10 03:45:16;;;;;;;78.37;31.40;;;3.80;25.10;;;;;;5016335;28;20777;-72
2022/03/10 03:47:42;;;;;;;72.63;30.43;;;3.60;25.80;;;;;;5022139;28;20180;-72
2022/03/10 03:50:08;;;;;;;73.70;31.10;;;3.40;25.90;;;;;;5029266;28;20197;-72
2022/03/10 03:52:34;;;;;;;72.07;31.73;;;3.40;25.90;;;;;;5029838;28;20195;-72
2022/03/10 03:55:00;;;;;;;71.53;32.17;;;3.60;26.40;;;;;;5030100;28;20181;-72
2022/03/10 03:57:25;;;;;;;70.43;31.65;;;3.80;25.10;;;;;;5018697;28;20259;-72
2022/03/10 03:59:51;;;;;;;72.77;30.83;;;4.10;24.50;;;;;;5025765;28;20212;-72
2022/03/10 04:02:17;;;;;;;86.60;31.23;;;3.90;24.60;;;;;;5024073;28;20182;-72
2022/03/10 04:04:42;;;;;;;69.07;30.87;;;4.00;24.30;;;;;;5023689;28;20751;-72
2022/03/10 04:07:08;;;;;;;63.93;29.90;;;3.80;25.10;;;;;;5028016;28;20697;-72
2022/03/10 04:09:34;;;;;;;69.33;31.30;;;3.50;25.80;;;;;;5027009;28;20196;-72
2022/03/10 04:12:01;;;;;;;70.97;31.67;;;3.50;26.30;;;;;;5025503;28;20271;-72
2022/03/10 04:14:27;;;;;;;69.25;31.25;;;3.50;26.50;;;;;;5024885;28;20191;-72
2022/03/10 04:16:52;;;;;;;63.47;30.37;;;3.60;26.00;;;;;;5021648;28;20185;-72
2022/03/10 04:19:18;;;;;;;70.07;30.73;;;3.70;26.20;;;;;;5028061;28;20203;-75
2022/03/10 04:21:44;;;;;;;72.63;31.77;;;3.30;26.20;;;;;;5033626;28;20180;-75
2022/03/10 04:24:10;;;;;;;70.47;31.50;;;3.40;26.30;;;;;;5033251;28;20180;-73
2022/03/10 04:26:35;;;;;;;77.77;32.60;;;3.50;26.10;;;;;;5028324;28;20681;-73
2022/03/10 04:29:01;;;;;;;68.30;30.53;;;3.70;25.40;;;;;;5030370;28;20611;-73
2022/03/10 04:31:27;;;;;;;73.83;30.70;;;3.40;26.20;;;;;;5032319;28;20185;-73
2022/03/10 04:33:52;;;;;;;78.00;32.63;;;3.20;26.40;;;;;;5026288;28;20180;-73
2022/03/10 04:36:18;;;;;;;70.57;31.97;;;3.00;27.40;;;;;;5017995;28;20189;-73
2022/03/10 04:38:44;;;;;;;82.23;32.47;;;3.20;26.50;;;;;;5028628;28;20292;-73
2022/03/10 04:41:10;;;;;;;69.10;30.40;;;3.10;27.60;;;;;;5030563;28;20184;-73
2022/03/10 04:43:36;;;;;;;65.47;29.02;;;3.40;25.60;;;;;;5015505;28;20432;-73
2022/03/10 04:46:03;;;;;;;71.00;31.00;;;3.60;25.50;;;;;;5020835;28;20296;-73
2022/03/10 04:48:29;;;;;;;79.50;30.85;;;3.30;26.10;;;;;;5025801;28;20662;-73
2022/03/10 04:50:55;;;;;;;67.20;31.05;;;3.10;26.50;;;;;;5027351;28;20251;-73
2022/03/10 04:53:21;;;;;;;70.80;30.93;;;1.00;24.20;;;;;;5028367;28;20284;-73
2022/03/10 04:55:47;;;;;;;66.97;29.97;;;3.60;25.30;;;;;;5026838;28;20777;-73
2022/03/10 04:58:13;;;;;;;69.43;30.23;;;3.50;26.10;;;;;;5028398;28;20478;-73
2022/03/10 05:00:38;;;;;;;72.90;30.57;;;3.60;25.40;;;;;;5021376;28;20873;-73
2022/03/10 05:03:04;;;;;;;60.40;28.13;;;3.70;25.40;;;;;;5024974;28;20779;-73
2022/03/10 05:05:29;;;;;;;66.67;32.00;;;3.60;25.30;;;;;;5025766;28;20737;-73
2022/03/10 05:07:55;;;;;;;72.70;30.33;;;3.60;25.20;;;;;;5024308;28;20180;-73
2022/03/10 05:10:21;;;;;;;61.50;28.33;;;3.70;25.10;;;;;;5032532;28;20231;-74
2022/03/10 05:12:56;;;;;;;64.97;30.83;;;3.70;25.90;;;;;;5025073;28;20589;-73
2022/03/10 05:15:24;;;;;;;70.80;31.77;;;3.60;25.80;;;;;;5032754;28;20426;-73
2022/03/10 05:17:50;;;;;;;72.43;31.10;;;3.70;25.80;;;;;;5028727;28;20180;-74
2022/03/10 05:20:17;;;;;;;65.50;30.65;;;3.30;26.70;;;;;;5029902;28;20220;-73
2022/03/10 05:22:48;;;;;;;66.53;29.48;;;3.40;26.20;;;;;;5020226;28;20186;-73
2022/03/10 05:25:14;;;;;;;65.45;30.17;;;3.10;27.10;;;;;;5031079;28;20705;-73
2022/03/10 05:27:41;;;;;;;80.18;31.33;;;3.30;26.20;;;;;;5032590;28;20188;-73
2022/03/10 05:30:08;;;;;;;77.50;30.08;;;3.40;26.20;;;;;;5024839;28;20193;-73
2022/03/10 05:32:34;;;;;;;67.13;30.80;;;3.30;27.00;;;;;;5031886;28;20184;-73
2022/03/10 05:35:00;;;;;;;74.33;30.07;;;3.10;27.10;;;;;;5023786;28;20176;-73
2022/03/10 05:37:27;;;;;;;71.90;31.20;;;3.20;26.80;;;;;;5031823;28;20192;-73
2022/03/10 05:39:52;;;;;;;72.10;31.17;;;3.30;26.30;;;;;;5019553;28;20842;-73
2022/03/10 05:42:18;;;;;;;67.00;30.53;;;3.20;27.00;;;;;;5023981;28;20200;-73
2022/03/10 05:44:44;;;;;;;68.77;29.50;;;3.00;27.20;;;;;;5025648;28;20211;-73
2022/03/10 05:47:10;;;;;;;76.22;32.42;;;3.10;26.80;;;;;;5025338;28;20177;-73
2022/03/10 05:49:36;;;;;;;80.73;31.50;;;3.10;27.80;;;;;;5030083;28;20287;-74
2022/03/10 05:52:02;;;;;;;70.03;31.20;;;2.80;27.30;;;;;;5023828;28;20536;-73
2022/03/10 05:54:28;;;;;;;82.50;28.73;;;2.60;28.00;;;;;;5023449;28;20181;-73
2022/03/10 05:56:54;;;;;;;91.00;28.93;;;2.30;27.60;;;;;;5024581;28;20186;-73
2022/03/10 05:59:19;;;;;;;78.83;30.63;;;2.30;27.60;;;;;;5026758;28;20482;-73
2022/03/10 06:01:46;;;;;;;73.17;29.47;;;2.00;28.10;;;;;;5027693;28;20188;-73
2022/03/10 06:04:12;;;;;;;62.00;28.70;;;2.00;27.80;;;;;;5031986;28;20183;-74
2022/03/10 06:06:37;;;;;;;67.72;27.25;;;2.10;27.40;;;;;;5026829;28;20200;-73
2022/03/10 06:09:03;;;;;;;63.73;27.70;;;2.10;27.70;;;;;;5024320;28;20669;-73
2022/03/10 06:11:29;;;;;;;65.63;27.80;;;2.30;27.50;;;;;;5025020;28;20173;-73
2022/03/10 06:13:55;;;;;;;66.22;28.33;;;2.50;27.70;;;;;;5030513;28;20188;-73
2022/03/10 06:16:21;;;;;;;66.97;27.33;;;2.50;27.70;;;;;;5024375;28;20181;-73
2022/03/10 06:18:47;;;;;;;71.35;27.77;;;2.60;27.70;;;;;;5019473;28;20198;-73
2022/03/10 06:21:13;;;;;;;67.47;28.33;;;2.70;27.80;;;;;;5022248;28;20192;-73
2022/03/10 06:23:38;;;;;;;62.93;28.30;;;2.80;27.50;;;;;;5019100;28;20181;-73
2022/03/10 06:26:04;;;;;;;68.13;26.60;;;2.70;27.80;;;;;;5023353;28;20267;-73
2022/03/10 06:28:30;;;;;;;79.40;28.80;;;2.80;27.30;;;;;;5030872;28;20200;-74
2022/03/10 06:30:56;;;;;;;66.80;28.20;;;2.30;27.50;;;;;;5031132;28;20208;-72
2022/03/10 06:33:22;;;;;;;67.22;28.23;;;2.40;27.60;;;;;;5030431;28;20212;-73
2022/03/10 06:35:48;;;;;;;59.30;26.70;;;2.60;27.40;;;;;;5025727;28;20647;-73
2022/03/10 06:38:14;;;;;;;61.93;28.87;;;2.90;27.30;;;;;;5017917;28;20937;-73
2022/03/10 06:40:39;;;;;;;69.50;30.37;;;2.90;27.90;;;;;;5020049;28;20189;-73
2022/03/10 06:43:05;;;;;;;71.73;28.13;;;3.00;27.80;;;;;;5020444;28;20251;-73
2022/03/10 06:45:31;;;;;;;57.83;28.13;;;3.10;26.90;;;;;;5023250;28;20279;-73
2022/03/10 06:47:58;;;;;;;73.10;29.02;;;3.30;26.60;;;;;;5030601;28;20227;-73
2022/03/10 06:50:24;;;;;;;70.95;28.48;;;3.40;26.40;;;;;;5024054;28;20226;-73
2022/03/10 06:52:52;;;;;;;59.92;28.70;;;3.40;26.40;;;;;;5024380;28;20172;-73
2022/03/10 06:55:19;;;;;;;74.25;29.60;;;3.40;26.20;;;;;;5030573;28;20177;-73
2022/03/10 06:57:46;;;;;;;71.43;29.50;;;3.40;26.30;;;;;;5015411;28;20196;-74
2022/03/10 07:00:12;;;;;;;75.32;30.58;;;3.40;26.20;;;;;;5018061;28;20213;-73
2022/03/10 07:02:38;;;;;;;67.55;29.40;;;3.50;26.10;;;;;;5029140;28;20195;-74
2022/03/10 07:05:04;;;;;;;65.23;28.73;;;3.60;26.30;;;;;;5024443;28;20197;-74
2022/03/10 07:07:29;;;;;;;62.55;28.27;;;4.00;25.60;;;;;;5022614;28;20714;-74
2022/03/10 07:09:55;;;;;;;68.63;30.47;;;3.80;25.80;;;;;;5019412;28;20297;-73
2022/03/10 07:12:21;;;;;;;74.17;29.20;;;4.20;25.10;;;;;;5020114;28;20235;-74
2022/03/10 07:14:46;;;;;;;60.53;28.37;;;4.20;25.20;;;;;;5028209;28;20184;-74
2022/03/10 07:17:12;;;;;;;65.07;29.27;;;4.30;24.70;;;;;;5018418;28;20192;-73
2022/03/10 07:19:38;;;;;;;66.50;29.90;;;4.30;24.80;;;;;;5017445;28;20209;-73
2022/03/10 07:22:04;;;;;;;71.82;30.75;;;4.30;25.60;;;;;;5026072;28;20180;-73
2022/03/10 07:24:31;;;;;;;68.13;29.30;;;4.70;24.40;;;;;;5031472;28;20669;-73
2022/03/10 07:26:57;;;;;;;63.33;30.00;;;4.70;24.40;;;;;;5022346;28;21206;-73
2022/03/10 07:29:22;;;;;;;64.40;29.20;;;4.50;24.70;;;;;;5024163;28;20295;-73
2022/03/10 07:31:48;;;;;;;69.80;30.50;;;4.80;24.50;;;;;;5031011;28;20184;-73
2022/03/10 07:34:14;;;;;;;64.50;29.40;;;4.70;24.70;;;;;;5029029;28;20246;-73
2022/03/10 07:36:42;;;;;;;71.87;30.30;;;5.10;24.80;;;;;;5024449;28;20592;-72
2022/03/10 07:39:08;;;;;;;72.55;28.40;;;4.30;25.60;;;;;;5026843;28;20192;-72
2022/03/10 07:41:33;;;;;;;63.80;29.93;;;3.20;28.00;;;;;;5017747;28;20219;-82
2022/03/10 07:43:59;;;;;;;69.77;30.57;;;3.30;27.80;;;;;;5021869;28;20180;-83
2022/03/10 07:46:25;;;;;;;74.20;30.70;;;3.80;27.50;;;;;;5024049;28;20271;-82
2022/03/10 07:48:51;;;;;;;73.13;31.10;;;3.30;27.90;;;;;;5020666;28;20643;-74
2022/03/10 07:51:18;;;;;;;69.07;31.33;;;3.10;28.10;;;;;;5025051;28;20420;-75
2022/03/10 07:53:44;;;;;;;81.13;31.88;;;3.40;28.30;;;;;;5030167;28;20181;-75
2022/03/10 07:56:09;;;;;;;68.40;30.97;;;3.40;27.70;;;;;;5019324;28;20188;-75
2022/03/10 07:58:35;;;;;;;66.70;29.37;;;4.30;26.80;;;;;;5031150;28;20294;-75
2022/03/10 08:01:00;;;;;;;66.13;29.60;;;4.50;26.00;;;;;;5025018;28;20589;-75
2022/03/10 08:03:26;;;;;;;75.10;33.47;;;5.10;25.20;;;;;;5027985;28;20188;-75
2022/03/10 08:05:53;;;;;;;75.23;30.33;;;5.40;25.70;;;;;;5035152;28;20207;-75
2022/03/10 08:08:19;;;;;;;63.35;30.50;;;5.70;24.20;;;;;;5032980;28;20693;-76
2022/03/10 08:10:45;;;;;;;67.15;31.45;;;6.10;23.40;;;;;;5034771;28;20607;-75
2022/03/10 08:13:11;;;;;;;65.37;31.87;;;5.70;23.90;;;;;;5034845;28;20311;-75
2022/03/10 08:15:36;;;;;;;77.23;31.00;;;5.30;25.00;;;;;;5034497;28;20951;-75
2022/03/10 08:18:03;;;;;;;79.40;32.87;;;5.10;25.30;;;;;;5034356;28;20173;-75
2022/03/10 08:20:29;;;;;;;76.60;33.33;;;5.40;25.00;;;;;;5032632;28;20198;-75
2022/03/10 08:22:55;;;;;;;74.43;32.73;;;5.20;25.20;;;;;;5032123;28;20176;-75
2022/03/10 08:25:22;;;;;;;70.03;32.60;;;5.70;24.80;;;;;;5028266;28;20247;-73
2022/03/10 08:27:47;;;;;;;65.55;32.03;;;7.00;24.80;;;;;;5033057;28;20189;-75
2022/03/10 08:30:14;;;;;;;60.90;30.90;;;6.70;23.20;;;;;;5034139;28;20207;-74
2022/03/10 08:32:42;;;;;;;72.82;31.92;;;6.80;23.50;;;;;;5034486;28;20268;-74
2022/03/10 08:35:08;;;;;;;72.13;33.35;;;6.90;24.10;;;;;;5033960;28;20176;-74
2022/03/10 08:37:34;;;;;;;60.70;30.30;;;6.90;23.10;;;;;;5034078;28;20173;-73
2022/03/10 08:39:59;;;;;;;59.20;32.07;;;6.80;23.70;;;;;;5033705;28;20678;-74
2022/03/10 08:42:25;;;;;;;64.23;31.97;;;7.50;23.20;;;;;;5034015;28;20196;-74
2022/03/10 08:44:51;;;;;;;68.00;32.10;;;7.40;22.30;;;;;;5033958;28;20205;-74
2022/03/10 08:47:16;;;;;;;72.70;31.83;;;7.40;22.20;;;;;;5033304;28;20230;-74
2022/03/10 08:49:42;;;;;;;66.47;31.73;;;6.40;23.80;;;;;;5032159;28;20694;-74
2022/03/10 08:52:08;;;;;;;65.27;32.53;;;6.90;22.70;;;;;;5022026;28;20643;-73
2022/03/10 08:54:33;;;;;;;67.23;32.73;;;6.90;23.20;;;;;;5025021;28;20183;-74
2022/03/10 08:56:59;;;;;;;66.03;32.17;;;7.20;22.50;;;;;;5020294;28;20189;-74
2022/03/10 08:59:24;;;;;;;67.30;32.10;;;7.00;23.00;;;;;;5030861;28;20265;-74
2022/03/10 09:01:50;;;;;;;72.50;33.20;;;6.80;23.00;;;;;;5020844;28;20201;-74
2022/03/10 09:04:16;;;;;;;69.03;33.57;;;7.50;22.70;;;;;;5029007;28;20176;-74
2022/03/10 09:06:42;;;;;;;59.58;31.52;;;7.00;22.60;;;;;;5029381;28;20260;-74
2022/03/10 09:09:07;;;;;;;64.87;32.30;;;6.80;23.10;;;;;;5027261;28;20328;-75
2022/03/10 09:11:33;;;;;;;70.47;30.27;;;7.60;22.70;;;;;;5033046;28;20671;-74
2022/03/10 09:13:59;;;;;;;69.57;32.13;;;7.60;22.20;;;;;;5029478;28;20174;-74
2022/03/10 09:16:25;;;;;;;61.08;29.75;;;7.90;22.00;;;;;;5032767;28;20176;-74
2022/03/10 09:18:51;;;;;;;62.88;32.35;;;8.40;21.30;;;;;;5026563;28;20206;-76
2022/03/10 09:21:18;;;;;;;61.37;30.23;;;8.60;21.20;;;;;;5030587;28;20268;-75
2022/03/10 09:23:43;;;;;;;61.47;30.88;;;8.10;21.10;;;;;;5030162;28;20189;-74
2022/03/10 09:26:09;;;;;;;61.30;31.67;;;8.30;21.70;;;;;;5027942;28;20209;-74
2022/03/10 09:28:35;;;;;;;66.00;31.60;;;8.00;21.90;;;;;;5022787;28;20457;-73
2022/03/10 09:31:01;;;;;;;53.53;28.33;;;8.30;21.70;;;;;;5026126;28;20939;-74
2022/03/10 09:33:27;;;;;;;67.00;29.00;;;8.40;21.80;;;;;;5027951;28;20184;-72
2022/03/10 09:35:52;;;;;;;58.37;27.30;;;9.20;20.50;;;;;;5026791;28;20187;-74
2022/03/10 09:38:18;;;;;;;53.83;27.73;;;9.30;20.30;;;;;;5022957;28;20454;-74
2022/03/10 09:40:47;;;;;;;47.60;24.93;;;9.60;19.70;;;;;;5026054;28;20655;-74
2022/03/10 09:43:12;;;;;;;46.47;22.75;;;9.50;19.90;;;;;;5029982;28;20427;-74
2022/03/10 09:45:39;;;;;;;41.27;21.23;;;10.10;18.30;;;;;;5024582;28;20285;-74
2022/03/10 09:48:05;;;;;;;39.95;22.27;;;10.60;18.30;;;;;;5030659;28;20653;-75
2022/03/10 09:50:31;;;;;;;45.77;22.47;;;10.60;18.20;;;;;;5023211;28;20240;-75
2022/03/10 09:52:57;;;;;;;39.72;21.85;;;11.00;17.50;;;;;;5028829;28;20510;-75
2022/03/10 09:55:23;;;;;;;43.50;20.63;;;10.30;17.80;;;;;;5023895;28;20188;-74
2022/03/10 09:57:49;;;;;;;50.20;21.60;;;10.60;17.80;;;;;;5031921;28;20173;-71
2022/03/10 10:00:17;;;;;;;50.10;23.13;;;11.10;17.50;;;;;;5021356;28;20215;-71
2022/03/10 10:02:44;;;;;;;50.55;23.77;;;11.50;16.60;;;;;;5025586;28;21002;-71
2022/03/10 10:05:30;;;;;;;56.13;25.43;;;12.10;16.30;;;;;;5021381;28;20299;-71
2022/03/10 10:08:04;;;;;;;43.97;24.73;;;12.40;16.10;;;;;;5027029;28;20431;-71
2022/03/10 10:10:33;;;;;;;51.13;23.57;;;11.90;15.80;;;;;;5020310;28;20502;-70
2022/03/10 10:13:04;;;;;;;47.20;24.47;;;11.60;16.40;;;;;;5014897;28;20432;-74
2022/03/10 10:16:05;;;;;;;54.50;26.50;;;11.20;17.20;;;;;;5019458;28;22016;-73
2022/03/10 10:18:32;;;;;;;47.60;23.70;;;12.00;17.10;;;;;;5027741;28;20447;-72
2022/03/10 10:20:59;;;;;;;44.90;25.67;;;12.80;15.80;;;;;;5021571;28;20916;-71
2022/03/10 10:23:27;;;;;;;43.40;23.60;;;12.60;16.00;;;;;;5021430;28;20443;-71
2022/03/10 10:26:00;;;;;;;46.23;24.10;;;13.10;15.20;;;;;;5018813;28;20474;-71
2022/03/10 10:28:31;;;;;;;44.37;25.40;;;12.40;16.10;;;;;;5021424;28;20777;-71
2022/03/10 10:31:05;;;;;;;49.73;24.63;;;12.70;15.80;;;;;;5026573;28;20435;-71
2022/03/10 10:33:33;;;;;;;52.00;23.10;;;13.30;15.20;;;;;;5042472;28;20456;-72
2022/03/10 10:36:15;;;;;;;47.53;23.53;;;13.00;16.30;;;;;;5027044;28;20523;-72
2022/03/10 10:38:48;;;;;;;40.80;23.63;;;12.20;16.70;;;;;;5022966;28;20456;-71
2022/03/10 10:41:24;;;;;;;44.17;23.10;;;12.60;16.70;;;;;;5015558;28;21001;-71
2022/03/10 10:43:54;;;;;;;42.23;22.80;;;13.70;15.90;;;;;;5020123;28;20432;-72
2022/03/10 10:46:30;;;;;;;43.53;21.57;;;14.60;15.50;;;;;;5021570;28;20460;-72
2022/03/10 10:48:58;;;;;;;35.13;20.37;;;14.60;13.70;;;;;;5021819;28;20458;-71
2022/03/10 10:51:32;;;;;;;36.57;20.20;;;14.80;13.30;;;;;;5027343;28;20993;-72
2022/03/10 10:54:00;;;;;;;33.30;20.37;;;14.90;13.50;;;;;;5023278;28;20415;-71
2022/03/10 10:56:26;;;;;;;15.10;8.90;;;15.20;13.90;;;;;;5026863;28;20473;-72
2022/03/10 10:58:54;;;;;;;8.97;4.90;;;15.30;11.20;;;;;;5024779;28;20454;-72
2022/03/10 11:01:27;;;;;;;10.40;4.90;;;15.40;9.80;;;;;;5026604;28;20920;-72
2022/03/10 11:03:53;;;;;;;10.17;4.83;;;16.00;10.20;;;;;;5026605;28;21131;-71
2022/03/10 11:06:21;;;;;;;7.70;4.80;;;16.40;8.40;;;;;;5021490;28;20461;-71
2022/03/10 11:08:47;;;;;;;6.67;4.60;;;16.70;8.80;;;;;;5027569;28;20449;-71
2022/03/10 11:11:15;;;;;;;8.57;4.40;;;17.30;7.80;;;;;;5027010;28;20431;-71
2022/03/10 11:13:41;;;;;;;12.97;4.40;;;17.80;9.00;;;;;;5019949;28;20437;-71
2022/03/10 11:16:08;;;;;;;5.70;3.90;;;17.20;6.80;;;;;;5023355;28;20434;-72
2022/03/10 11:18:34;;;;;;;6.13;4.20;;;18.10;6.00;;;;;;5020673;28;20807;-72
2022/03/10 11:21:16;;;;;;;12.23;4.63;;;19.40;5.30;;;;;;5025731;28;20433;-72
2022/03/10 11:24:10;;;;;;;6.93;4.63;;;19.30;6.10;;;;;;5016211;28;20420;-73
2022/03/10 11:26:56;;;;;;;9.00;4.90;;;19.60;6.00;;;;;;5028077;28;20516;-73
2022/03/10 11:29:24;;;;;;;5.97;4.80;;;21.30;3.90;;;;;;5021205;28;20441;-72
2022/03/10 11:31:53;;;;;;;12.50;4.90;;;21.10;5.30;;;;;;5029706;28;20836;-72
2022/03/10 11:34:52;;;;;;;5.93;4.40;;;20.10;4.70;;;;;;5021989;28;20438;-72
2022/03/10 11:37:40;;;;;;;6.97;5.07;;;19.70;4.90;;;;;;5021432;28;20992;-73
2022/03/10 11:40:08;;;;;;;8.67;5.80;;;20.30;4.80;;;;;;5014150;28;20466;-72
2022/03/10 11:42:35;;;;;;;6.23;5.10;;;20.10;4.60;;;;;;5032130;28;20935;-72
2022/03/10 11:45:17;;;;;;;8.73;4.80;;;20.20;4.00;;;;;;5023156;28;20467;-72
2022/03/10 11:47:44;;;;;;;7.10;4.80;;;22.00;3.50;;;;;;5025590;28;20427;-73
2022/03/10 11:50:22;;;;;;;9.63;5.00;;;22.20;3.10;;;;;;5029310;28;20446;-71
2022/03/10 11:52:50;;;;;;;7.50;4.47;;;22.20;3.40;;;;;;5028848;28;20427;-71
2022/03/10 11:55:17;;;;;;;8.43;4.77;;;21.50;3.70;;;;;;5024127;28;20427;-71
2022/03/10 11:58:04;;;;;;;7.47;5.30;;;21.70;2.90;;;;;;5027388;28;20454;-71
2022/03/10 12:00:46;;;;;;;5.30;4.80;;;22.50;3.70;;;;;;5019875;28;20807;-71
2022/03/10 12:03:36;;;;;;;10.83;4.50;;;23.70;2.00;;;;;;5014615;28;20427;-71
2022/03/10 12:06:05;;;;;;;6.30;4.50;;;24.90;1.50;;;;;;5028702;28;20561;-71
2022/03/10 12:08:35;;;;;;;5.53;4.43;;;25.20;1.00;;;;;;5044216;28;20802;-71
2022/03/10 12:11:03;;;;;;;7.10;4.90;;;24.30;1.00;;;;;;5019677;28;20518;-74
2022/03/10 12:13:36;;;;;;;7.10;5.13;;;21.90;1.90;;;;;;5016911;28;20945;-73
2022/03/10 12:16:05;;;;;;;8.03;4.37;;;20.90;2.60;;;;;;5019371;28;20813;-72
2022/03/10 12:18:43;;;;;;;7.72;4.00;;;21.20;2.70;;;;;;5022216;28;20492;-74
2022/03/10 12:21:29;;;;;;;5.40;4.00;;;22.10;2.80;;;;;;5023044;28;20169;-74
2022/03/10 12:23:57;;;;;;;4.27;3.80;;;22.90;2.00;;;;;;5019243;28;20912;-73
2022/03/10 12:26:31;;;;;;;5.33;4.07;;;22.20;1.80;;;;;;5014114;28;20491;-73
2022/03/10 12:29:05;;;;;;;10.33;4.23;;;23.00;1.00;;;;;;5019113;28;20446;-73
2022/03/10 12:31:33;;;;;;;9.33;4.17;;;23.70;1.00;;;;;;5016520;28;20444;-73
2022/03/10 12:34:02;;;;;;;6.80;4.07;;;24.10;1.00;;;;;;5026443;28;20423;-73
2022/03/10 12:36:35;;;;;;;4.20;3.37;;;22.10;1.90;;;;;;5028266;28;20433;-73
2022/03/10 12:39:07;;;;;;;15.23;4.20;;;22.90;1.30;;;;;;5016784;28;20976;-73
2022/03/10 12:41:36;;;;;;;6.63;3.90;;;22.40;1.30;;;;;;5024998;28;20911;-73
2022/03/10 12:44:03;;;;;;;5.90;3.90;;;21.80;1.40;;;;;;5029650;28;20992;-73
2022/03/10 12:46:30;;;;;;;4.90;3.70;;;22.10;1.30;;;;;;5019614;28;20518;-73
2022/03/10 12:49:01;;;;;;;4.70;3.70;;;22.10;1.10;;;;;;5028589;28;20439;-74